Time;durP1;ratioP1;P1;durP2;ratioP2;P2;SDS_P1;SDS_P2;PMS_P1;PMS_P2;Temp;Humidity;BMP_temperature;BMP_pressure;BME280_temperature;BME280_humidity;BME280_pressure;Samples;Min_cycle;Max_cycle;Signal;HPM_P1;HPM_P2
2022/07/19 00:02:09;;;;;;;3.55;1.33;;;20.60;99.90;;;;;;5074024;28;20021;-75
2022/07/19 00:04:35;;;;;;;3.63;0.90;;;20.60;99.90;;;;;;5075235;28;20058;-75
2022/07/19 00:07:01;;;;;;;5.47;1.35;;;20.50;99.90;;;;;;5075229;28;20029;-75
2022/07/19 00:09:27;;;;;;;4.10;1.23;;;20.50;99.90;;;;;;5073921;28;20017;-75
2022/07/19 00:11:53;;;;;;;4.43;1.30;;;20.50;99.90;;;;;;5075189;28;20366;-75
2022/07/19 00:14:19;;;;;;;2.35;1.23;;;20.50;99.90;;;;;;5075597;28;20032;-75
2022/07/19 00:16:45;;;;;;;5.15;1.00;;;20.40;99.90;;;;;;5075315;28;20021;-75
2022/07/19 00:19:11;;;;;;;4.22;0.90;;;20.40;99.90;;;;;;5074861;28;20536;-75
2022/07/19 00:21:37;;;;;;;3.40;0.90;;;20.30;99.90;;;;;;5074980;28;20017;-75
2022/07/19 00:24:02;;;;;;;3.63;0.75;;;20.30;99.90;;;;;;5074963;28;20048;-75
2022/07/19 00:26:28;;;;;;;4.95;0.82;;;20.30;99.90;;;;;;5075034;28;20020;-75
2022/07/19 00:28:56;;;;;;;5.35;1.25;;;20.20;99.90;;;;;;5075320;28;20037;-75
2022/07/19 00:31:22;;;;;;;3.65;1.42;;;20.20;99.90;;;;;;5074755;28;20433;-75
2022/07/19 00:33:48;;;;;;;3.05;1.00;;;20.10;99.90;;;;;;5074144;28;20024;-75
2022/07/19 00:36:14;;;;;;;5.30;1.10;;;20.20;99.90;;;;;;5074296;28;20024;-75
2022/07/19 00:38:40;;;;;;;3.58;1.13;;;20.10;99.90;;;;;;5074428;28;20105;-75
2022/07/19 00:41:06;;;;;;;6.40;1.35;;;20.10;99.90;;;;;;5074423;28;20519;-75
2022/07/19 00:43:32;;;;;;;3.67;0.88;;;20.00;99.90;;;;;;5074693;28;20048;-74
2022/07/19 00:45:58;;;;;;;5.97;0.95;;;20.00;99.90;;;;;;5074471;28;20473;-75
2022/07/19 00:48:24;;;;;;;3.22;1.20;;;20.00;99.90;;;;;;5073668;28;20507;-75
2022/07/19 00:50:50;;;;;;;9.73;1.95;;;20.00;99.90;;;;;;5074095;28;20500;-75
2022/07/19 00:53:18;;;;;;;4.40;1.20;;;20.00;99.90;;;;;;5074473;28;20012;-75
2022/07/19 00:55:45;;;;;;;2.90;0.73;;;20.00;99.90;;;;;;5074146;28;20029;-75
2022/07/19 00:58:13;;;;;;;8.02;1.00;;;19.90;99.90;;;;;;5074135;28;20021;-75
2022/07/19 01:00:40;;;;;;;1.70;1.05;;;19.90;99.90;;;;;;5074019;28;20031;-75
2022/07/19 01:03:08;;;;;;;4.10;0.90;;;19.80;99.90;;;;;;5074404;28;20479;-75
2022/07/19 01:05:34;;;;;;;6.90;1.23;;;19.80;99.90;;;;;;5074240;28;20029;-75
2022/07/19 01:08:00;;;;;;;8.13;2.00;;;19.80;99.90;;;;;;5073974;28;20025;-75
2022/07/19 01:10:26;;;;;;;3.65;0.73;;;19.70;99.90;;;;;;5073791;28;20108;-75
2022/07/19 01:12:52;;;;;;;3.05;1.00;;;19.70;99.90;;;;;;5073891;28;20056;-75
2022/07/19 01:15:21;;;;;;;2.83;1.00;;;19.60;99.90;;;;;;5072602;28;20032;-75
2022/07/19 01:17:47;;;;;;;6.80;1.52;;;19.60;99.90;;;;;;5074089;28;20017;-75
2022/07/19 01:20:13;;;;;;;3.97;0.90;;;19.50;99.90;;;;;;5073565;28;20043;-75
2022/07/19 01:22:41;;;;;;;2.72;1.00;;;19.50;99.90;;;;;;5073768;28;20031;-75
2022/07/19 01:25:07;;;;;;;5.75;1.20;;;19.50;99.90;;;;;;5073635;28;20021;-75
2022/07/19 01:27:44;;;;;;;2.15;1.23;;;19.50;99.90;;;;;;5073647;28;20035;-75
2022/07/19 01:30:15;;;;;;;1.13;0.88;;;19.50;99.90;;;;;;5074124;28;20025;-75
2022/07/19 01:32:41;;;;;;;2.53;1.15;;;19.40;99.90;;;;;;5073501;28;20081;-75
2022/07/19 01:35:08;;;;;;;2.65;1.20;;;19.40;99.90;;;;;;5073491;28;20028;-75
2022/07/19 01:37:35;;;;;;;4.07;1.33;;;19.40;99.90;;;;;;5073562;28;20035;-75
2022/07/19 01:40:06;;;;;;;8.70;2.05;;;19.30;99.90;;;;;;5073304;28;20050;-75
2022/07/19 01:42:31;;;;;;;2.95;1.30;;;19.40;99.90;;;;;;5073389;28;20531;-75
2022/07/19 01:44:57;;;;;;;3.15;1.27;;;19.30;99.90;;;;;;5073349;28;20020;-75
2022/07/19 01:47:23;;;;;;;1.92;1.27;;;19.20;99.90;;;;;;5073547;28;20025;-75
2022/07/19 01:49:49;;;;;;;10.40;1.20;;;19.20;99.90;;;;;;5073397;28;20389;-75
2022/07/19 01:52:14;;;;;;;4.30;1.30;;;19.20;99.90;;;;;;5072017;28;20025;-75
2022/07/19 01:54:40;;;;;;;3.75;0.90;;;19.20;99.90;;;;;;5073344;28;20493;-75
2022/07/19 01:57:05;;;;;;;4.65;1.45;;;19.20;99.90;;;;;;5073251;28;20443;-75
2022/07/19 01:59:31;;;;;;;5.50;1.48;;;19.10;99.90;;;;;;5073057;28;20048;-75
2022/07/19 02:01:57;;;;;;;3.78;1.30;;;19.10;99.90;;;;;;5073170;28;20054;-75
2022/07/19 02:04:22;;;;;;;5.00;1.77;;;19.10;99.90;;;;;;5073237;28;20066;-74
2022/07/19 02:06:48;;;;;;;4.30;1.33;;;19.10;99.90;;;;;;5072962;28;20420;-75
2022/07/19 02:09:14;;;;;;;4.00;1.45;;;19.10;99.90;;;;;;5073044;28;20554;-75
2022/07/19 02:11:39;;;;;;;6.38;1.20;;;19.00;99.90;;;;;;5073299;28;20366;-75
2022/07/19 02:14:07;;;;;;;2.78;1.33;;;19.00;99.90;;;;;;5071785;28;20027;-75
2022/07/19 02:16:34;;;;;;;6.30;1.45;;;19.00;99.90;;;;;;5073566;28;20035;-75
2022/07/19 02:19:00;;;;;;;2.80;1.17;;;19.00;99.90;;;;;;5073216;28;20028;-75
2022/07/19 02:21:26;;;;;;;2.33;1.17;;;19.00;99.90;;;;;;5073353;28;20025;-75
2022/07/19 02:23:51;;;;;;;5.03;1.45;;;18.90;99.90;;;;;;5073025;28;20070;-75
2022/07/19 02:26:17;;;;;;;3.75;1.35;;;18.80;99.90;;;;;;5071634;28;20031;-74
2022/07/19 02:28:43;;;;;;;5.95;1.95;;;18.80;99.90;;;;;;5072963;28;20028;-75
2022/07/19 02:31:08;;;;;;;6.43;1.50;;;18.80;99.90;;;;;;5073373;28;20031;-75
2022/07/19 02:33:34;;;;;;;5.93;1.73;;;18.80;99.90;;;;;;5071670;28;20434;-74
2022/07/19 02:35:59;;;;;;;4.32;1.15;;;18.70;99.90;;;;;;5072834;28;20033;-74
2022/07/19 02:38:25;;;;;;;3.13;1.45;;;18.70;99.90;;;;;;5072916;28;20020;-74
2022/07/19 02:40:50;;;;;;;2.65;1.38;;;18.60;99.90;;;;;;5072828;28;20063;-74
2022/07/19 02:43:16;;;;;;;6.68;1.48;;;18.60;99.90;;;;;;5072815;28;20036;-75
2022/07/19 02:45:42;;;;;;;2.90;1.10;;;18.60;99.90;;;;;;5073117;28;20021;-75
2022/07/19 02:48:09;;;;;;;3.40;0.95;;;18.60;99.90;;;;;;5072720;28;20020;-75
2022/07/19 02:50:35;;;;;;;2.65;1.35;;;18.60;99.90;;;;;;5071284;28;20037;-75
2022/07/19 02:53:01;;;;;;;4.85;1.58;;;18.60;99.90;;;;;;5072625;28;20027;-75
2022/07/19 02:55:27;;;;;;;3.67;1.40;;;18.60;99.90;;;;;;5072953;28;20021;-75
2022/07/19 02:57:52;;;;;;;5.50;1.77;;;18.50;99.90;;;;;;5073844;28;20370;-75
2022/07/19 03:00:18;;;;;;;8.43;1.48;;;18.50;99.90;;;;;;5076112;28;20017;-74
2022/07/19 03:02:44;;;;;;;4.18;1.60;;;18.40;99.90;;;;;;5076201;28;20103;-74
2022/07/19 03:05:09;;;;;;;4.72;0.93;;;18.40;99.90;;;;;;5076654;28;20025;-74
2022/07/19 03:07:35;;;;;;;2.38;1.00;;;18.40;99.90;;;;;;5076194;28;20024;-74
2022/07/19 03:10:00;;;;;;;2.75;1.23;;;18.40;99.90;;;;;;5074713;28;20031;-74
2022/07/19 03:12:26;;;;;;;5.45;1.27;;;18.40;99.90;;;;;;5076154;28;20064;-74
2022/07/19 03:14:52;;;;;;;2.35;1.13;;;18.40;99.90;;;;;;5076254;28;20028;-75
2022/07/19 03:17:17;;;;;;;3.45;1.15;;;18.30;99.90;;;;;;5076239;28;20020;-75
2022/07/19 03:19:43;;;;;;;4.63;1.13;;;18.30;99.90;;;;;;5076188;28;20099;-75
2022/07/19 03:22:08;;;;;;;3.42;1.38;;;18.30;99.90;;;;;;5076535;28;20021;-75
2022/07/19 03:24:34;;;;;;;6.15;1.85;;;18.30;99.90;;;;;;5075940;28;20378;-75
2022/07/19 03:26:59;;;;;;;4.90;1.23;;;18.30;99.90;;;;;;5076039;28;20027;-75
2022/07/19 03:29:25;;;;;;;3.03;1.50;;;18.30;99.90;;;;;;5074384;28;20036;-75
2022/07/19 03:31:51;;;;;;;4.47;1.17;;;18.20;99.90;;;;;;5075839;28;20394;-76
2022/07/19 03:34:17;;;;;;;3.50;1.42;;;18.20;99.90;;;;;;5074567;28;20115;-75
2022/07/19 03:36:43;;;;;;;2.90;0.88;;;18.10;99.90;;;;;;5076081;28;20543;-75
2022/07/19 03:39:08;;;;;;;3.67;1.15;;;18.10;99.90;;;;;;5075512;28;20435;-75
2022/07/19 03:41:34;;;;;;;4.07;1.45;;;18.20;99.90;;;;;;5075779;28;20021;-75
2022/07/19 03:43:59;;;;;;;2.30;1.20;;;18.10;99.90;;;;;;5076051;28;20017;-75
2022/07/19 03:46:26;;;;;;;6.03;1.00;;;18.00;99.90;;;;;;5075537;28;20035;-75
2022/07/19 03:48:51;;;;;;;4.63;1.52;;;18.00;99.90;;;;;;5074214;28;20119;-75
2022/07/19 03:51:17;;;;;;;4.65;1.30;;;18.10;99.90;;;;;;5075341;28;20052;-75
2022/07/19 03:53:42;;;;;;;3.17;1.20;;;18.10;99.90;;;;;;5075489;28;20028;-74
2022/07/19 03:56:08;;;;;;;4.30;1.83;;;18.00;99.90;;;;;;5075419;28;20405;-74
2022/07/19 03:58:34;;;;;;;5.20;1.73;;;18.00;99.90;;;;;;5075232;28;20024;-75
2022/07/19 04:01:00;;;;;;;3.25;1.52;;;18.00;99.90;;;;;;5073900;28;20028;-75
2022/07/19 04:03:25;;;;;;;2.53;1.30;;;18.00;99.90;;;;;;5075255;28;20021;-75
2022/07/19 04:05:51;;;;;;;3.38;1.67;;;18.00;99.90;;;;;;5073762;28;20139;-75
2022/07/19 04:08:16;;;;;;;3.67;1.40;;;18.00;99.90;;;;;;5074966;28;20024;-75
2022/07/19 04:10:42;;;;;;;6.47;1.33;;;18.10;99.90;;;;;;5074954;28;20020;-75
2022/07/19 04:13:08;;;;;;;5.35;1.35;;;18.00;99.90;;;;;;5075091;28;20028;-75
2022/07/19 04:15:33;;;;;;;6.63;1.88;;;17.90;99.90;;;;;;5075205;28;20065;-75
2022/07/19 04:17:59;;;;;;;1.20;0.85;;;18.00;99.90;;;;;;5074897;28;20046;-75
2022/07/19 04:20:25;;;;;;;2.38;1.30;;;18.00;99.90;;;;;;5074960;28;20509;-75
2022/07/19 04:22:50;;;;;;;3.70;1.45;;;18.00;99.90;;;;;;5075503;28;20052;-75
2022/07/19 04:25:16;;;;;;;3.92;0.80;;;18.00;99.90;;;;;;5073864;28;20483;-75
2022/07/19 04:27:41;;;;;;;3.95;1.05;;;18.20;99.90;;;;;;5074868;28;20385;-75
2022/07/19 04:30:07;;;;;;;5.18;1.63;;;18.20;99.90;;;;;;5073381;28;20025;-74
2022/07/19 04:32:33;;;;;;;5.45;1.27;;;18.20;99.90;;;;;;5073367;28;20115;-75
2022/07/19 04:35:00;;;;;;;3.38;1.05;;;18.30;99.90;;;;;;5073347;28;20028;-75
2022/07/19 04:37:25;;;;;;;3.92;1.30;;;18.40;99.90;;;;;;5073289;28;20021;-74
2022/07/19 04:39:51;;;;;;;2.85;1.05;;;18.40;99.90;;;;;;5074637;28;20385;-74
2022/07/19 04:42:17;;;;;;;4.32;1.45;;;18.40;99.90;;;;;;5074453;28;20035;-75
2022/07/19 04:44:42;;;;;;;2.75;1.20;;;18.50;99.90;;;;;;5073140;28;20023;-75
2022/07/19 04:47:08;;;;;;;4.22;1.30;;;18.50;99.90;;;;;;5073036;28;20393;-75
2022/07/19 04:49:33;;;;;;;2.50;0.98;;;18.70;99.90;;;;;;5072982;28;20155;-75
2022/07/19 04:51:59;;;;;;;3.83;1.20;;;18.70;99.90;;;;;;5074215;28;20017;-75
2022/07/19 04:54:25;;;;;;;5.38;1.50;;;18.70;99.90;;;;;;5074684;28;20032;-75
2022/07/19 04:56:51;;;;;;;3.05;1.10;;;18.80;99.90;;;;;;5074796;28;20032;-75
2022/07/19 04:59:16;;;;;;;2.40;0.77;;;18.90;99.90;;;;;;5072730;28;20032;-75
2022/07/19 05:01:42;;;;;;;4.50;1.25;;;19.00;99.90;;;;;;5074394;28;20043;-75
2022/07/19 05:04:07;;;;;;;1.77;0.88;;;19.20;99.90;;;;;;5072636;28;20024;-75
2022/07/19 05:06:33;;;;;;;2.38;1.20;;;19.40;99.90;;;;;;5074045;28;20056;-75
2022/07/19 05:08:58;;;;;;;7.00;0.90;;;19.50;99.90;;;;;;5073953;28;20432;-75
2022/07/19 05:11:24;;;;;;;2.50;0.85;;;19.50;99.90;;;;;;5074333;28;20032;-75
2022/07/19 05:13:50;;;;;;;4.10;0.90;;;19.70;99.90;;;;;;5073884;28;20028;-75
2022/07/19 05:16:15;;;;;;;1.25;0.45;;;20.00;99.90;;;;;;5073841;28;20055;-75
2022/07/19 05:18:41;;;;;;;1.83;0.60;;;20.00;99.90;;;;;;5072441;28;20065;-75
2022/07/19 05:21:06;;;;;;;4.15;1.35;;;20.10;99.90;;;;;;5071938;28;20016;-75
2022/07/19 05:23:32;;;;;;;4.35;1.20;;;20.20;99.90;;;;;;5074217;28;20016;-75
2022/07/19 05:25:57;;;;;;;3.63;0.70;;;20.40;99.90;;;;;;5074552;28;20381;-75
2022/07/19 05:28:23;;;;;;;4.85;1.60;;;20.50;99.90;;;;;;5073586;28;20103;-75
2022/07/19 05:30:49;;;;;;;5.28;1.08;;;20.70;99.90;;;;;;5072627;28;20105;-75
2022/07/19 05:33:16;;;;;;;2.92;0.80;;;20.80;99.90;;;;;;5074153;28;20036;-75
2022/07/19 05:35:42;;;;;;;10.50;2.30;;;21.00;99.90;;;;;;5072265;28;20021;-75
2022/07/19 05:38:07;;;;;;;10.13;0.95;;;21.10;99.90;;;;;;5071988;28;20078;-75
2022/07/19 05:40:33;;;;;;;18.40;1.80;;;21.30;99.90;;;;;;5073740;28;20462;-74
2022/07/19 05:43:00;;;;;;;4.43;0.80;;;21.50;99.90;;;;;;5073459;28;20017;-73
2022/07/19 05:45:26;;;;;;;1.95;0.40;;;21.70;99.90;;;;;;5072169;28;20420;-74
2022/07/19 05:47:52;;;;;;;6.35;0.73;;;21.80;99.90;;;;;;5073679;28;20033;-76
2022/07/19 05:50:17;;;;;;;5.85;0.70;;;22.00;99.90;;;;;;5072090;28;20381;-74
2022/07/19 05:52:43;;;;;;;9.15;1.65;;;22.10;99.90;;;;;;5073226;28;20027;-74
2022/07/19 05:55:09;;;;;;;5.10;0.98;;;22.30;99.40;;;;;;5073357;28;20025;-74
2022/07/19 05:57:34;;;;;;;5.28;0.47;;;22.40;99.00;;;;;;5073398;28;20102;-74
2022/07/19 06:00:00;;;;;;;4.57;0.70;;;22.60;98.40;;;;;;5073381;28;20024;-74
2022/07/19 06:02:26;;;;;;;3.08;0.65;;;22.70;97.80;;;;;;5073138;28;20021;-74
2022/07/19 06:04:51;;;;;;;5.28;0.60;;;22.90;97.40;;;;;;5071871;28;20042;-74
2022/07/19 06:07:18;;;;;;;8.20;0.70;;;23.00;96.80;;;;;;5072399;28;20469;-74
2022/07/19 06:09:43;;;;;;;6.43;0.63;;;23.60;96.40;;;;;;5073146;28;20044;-74
2022/07/19 06:12:09;;;;;;;3.50;0.40;;;23.40;95.70;;;;;;5073504;28;20482;-74
2022/07/19 06:14:34;;;;;;;2.45;0.47;;;23.50;95.10;;;;;;5071944;28;20066;-74
2022/07/19 06:17:00;;;;;;;1.55;0.45;;;23.60;94.40;;;;;;5073716;28;20020;-74
2022/07/19 06:19:26;;;;;;;2.60;1.00;;;23.80;93.70;;;;;;5073305;28;20032;-76
2022/07/19 06:21:52;;;;;;;1.58;0.60;;;23.90;93.50;;;;;;5073170;28;20036;-74
2022/07/19 06:24:18;;;;;;;3.58;0.20;;;24.10;93.20;;;;;;5071666;28;20024;-74
2022/07/19 06:26:44;;;;;;;4.05;0.43;;;24.20;93.30;;;;;;5073045;28;20367;-74
2022/07/19 06:29:09;;;;;;;3.38;0.32;;;24.40;92.90;;;;;;5072945;28;20083;-74
2022/07/19 06:31:35;;;;;;;5.18;0.30;;;24.50;92.30;;;;;;5071696;28;20028;-74
2022/07/19 06:34:01;;;;;;;2.55;0.30;;;24.70;91.90;;;;;;5076176;28;20392;-74
2022/07/19 06:36:27;;;;;;;3.42;0.73;;;24.90;90.40;;;;;;5075792;28;20028;-74
2022/07/19 06:38:52;;;;;;;5.20;0.70;;;25.00;89.30;;;;;;5076886;28;20147;-74
2022/07/19 06:41:18;;;;;;;3.97;0.30;;;25.10;87.90;;;;;;5077053;28;20477;-74
2022/07/19 06:43:44;;;;;;;3.63;0.63;;;25.30;86.00;;;;;;5077378;28;20501;-74
2022/07/19 06:46:10;;;;;;;2.13;0.32;;;25.40;84.80;;;;;;5077199;28;20454;-74
2022/07/19 06:48:36;;;;;;;4.53;0.20;;;25.50;85.00;;;;;;5076768;28;20102;-74
2022/07/19 06:51:01;;;;;;;6.40;0.50;;;25.70;84.00;;;;;;5076724;28;20103;-74
2022/07/19 06:53:27;;;;;;;3.10;0.40;;;25.80;83.80;;;;;;5076901;28;20025;-74
2022/07/19 06:55:52;;;;;;;3.55;0.32;;;25.90;82.00;;;;;;5075403;28;20051;-74
2022/07/19 06:58:18;;;;;;;7.20;0.70;;;26.10;81.70;;;;;;5076821;28;20021;-74
2022/07/19 07:00:44;;;;;;;7.30;0.50;;;26.20;80.60;;;;;;5076492;28;20385;-74
2022/07/19 07:03:09;;;;;;;2.30;0.20;;;26.30;79.20;;;;;;5076742;28;20082;-74
2022/07/19 07:05:36;;;;;;;1.08;0.30;;;26.40;79.20;;;;;;5083528;22;20040;-73
2022/07/19 07:08:01;;;;;;;4.60;0.20;;;26.50;78.40;;;;;;5076373;28;20020;-73
2022/07/19 07:10:27;;;;;;;4.18;0.10;;;26.60;77.50;;;;;;5091930;28;20020;-73
2022/07/19 07:12:53;;;;;;;3.63;0.43;;;26.80;76.50;;;;;;5076297;28;20029;-74
2022/07/19 07:15:18;;;;;;;1.98;0.15;;;26.90;76.70;;;;;;5076279;28;20023;-74
2022/07/19 07:17:44;;;;;;;4.43;0.10;;;27.00;74.90;;;;;;5076560;28;20017;-74
2022/07/19 07:20:11;;;;;;;7.35;0.35;;;27.10;74.40;;;;;;5076276;28;20025;-74
2022/07/19 07:22:36;;;;;;;2.60;0.20;;;27.20;73.40;;;;;;5076402;28;20380;-73
2022/07/19 07:25:04;;;;;;;5.07;0.40;;;27.40;73.40;;;;;;5076086;28;20021;-73
2022/07/19 07:27:29;;;;;;;4.90;0.10;;;27.50;72.50;;;;;;5076079;28;20024;-73
2022/07/19 07:29:55;;;;;;;5.30;0.20;;;27.60;72.10;;;;;;5075935;28;20027;-76
2022/07/19 07:32:20;;;;;;;1.48;0.17;;;27.70;70.50;;;;;;5076132;28;20028;-76
2022/07/19 07:34:46;;;;;;;4.28;0.43;;;27.90;70.70;;;;;;5075970;28;20115;-74
2022/07/19 07:37:12;;;;;;;2.05;0.40;;;28.00;69.60;;;;;;5075863;28;20032;-74
2022/07/19 07:39:38;;;;;;;2.97;0.10;;;28.10;69.40;;;;;;5075645;28;20024;-74
2022/07/19 07:42:05;;;;;;;2.15;0.25;;;28.30;68.90;;;;;;5076152;28;20016;-74
2022/07/19 07:44:32;;;;;;;1.65;0.20;;;28.40;67.60;;;;;;5073967;28;20044;-74
2022/07/19 07:46:57;;;;;;;1.17;0.17;;;28.50;67.50;;;;;;5074567;28;20025;-74
2022/07/19 07:49:23;;;;;;;3.60;0.20;;;28.60;66.60;;;;;;5075799;28;20032;-74
2022/07/19 07:51:49;;;;;;;1.60;0.03;;;28.80;66.60;;;;;;5075877;28;20032;-74
2022/07/19 07:54:15;;;;;;;4.82;0.22;;;28.90;66.20;;;;;;5075518;28;20433;-74
2022/07/19 07:56:40;;;;;;;1.13;0.13;;;29.00;65.80;;;;;;5074212;28;20070;-74
2022/07/19 07:59:06;;;;;;;2.92;0.50;;;29.10;64.60;;;;;;5075284;28;20108;-74
2022/07/19 08:01:32;;;;;;;1.23;0.20;;;29.20;65.00;;;;;;5074175;28;20098;-73
2022/07/19 08:03:57;;;;;;;0.85;0.13;;;29.30;64.20;;;;;;5075392;28;20016;-73
2022/07/19 08:06:23;;;;;;;7.47;0.22;;;29.30;63.70;;;;;;5075256;28;20028;-73
2022/07/19 08:08:49;;;;;;;3.40;0.35;;;29.50;63.70;;;;;;5075159;28;20044;-73
2022/07/19 08:11:14;;;;;;;1.23;0.60;;;29.60;63.60;;;;;;5075222;28;20028;-73
2022/07/19 08:13:40;;;;;;;3.72;0.25;;;29.70;63.70;;;;;;5075153;28;20032;-73
2022/07/19 08:16:06;;;;;;;0.50;0.00;;;29.80;63.00;;;;;;5075271;28;20366;-73
2022/07/19 08:18:32;;;;;;;2.28;0.10;;;30.00;62.40;;;;;;5075587;28;20142;-73
2022/07/19 08:20:58;;;;;;;0.65;0.10;;;30.10;61.40;;;;;;5074960;28;20021;-73
2022/07/19 08:23:24;;;;;;;6.50;0.35;;;30.10;59.20;;;;;;5074920;28;20473;-73
2022/07/19 08:25:49;;;;;;;7.97;0.25;;;30.10;59.50;;;;;;5075550;28;20035;-73
2022/07/19 08:28:15;;;;;;;2.65;0.10;;;30.20;60.50;;;;;;5075207;28;20024;-73
2022/07/19 08:30:40;;;;;;;6.88;0.47;;;30.40;60.20;;;;;;5074824;28;20092;-73
2022/07/19 08:33:08;;;;;;;6.80;0.20;;;30.50;60.10;;;;;;5075061;28;20036;-73
2022/07/19 08:35:35;;;;;;;3.35;0.52;;;30.60;58.00;;;;;;5075035;28;20042;-74
2022/07/19 08:38:00;;;;;;;6.80;0.10;;;30.70;58.30;;;;;;5074622;28;20039;-74
2022/07/19 08:40:26;;;;;;;1.23;0.25;;;30.90;56.70;;;;;;5074654;28;20029;-74
2022/07/19 08:42:53;;;;;;;3.50;0.20;;;31.00;57.40;;;;;;5074661;28;20097;-74
2022/07/19 08:45:22;;;;;;;2.60;0.10;;;31.00;56.80;;;;;;5074539;28;20384;-76
2022/07/19 08:47:48;;;;;;;1.90;0.35;;;31.20;56.70;;;;;;5074514;28;20054;-76
2022/07/19 08:50:14;;;;;;;3.38;0.22;;;31.30;56.30;;;;;;5075287;28;20519;-76
2022/07/19 08:52:40;;;;;;;1.55;0.20;;;31.30;55.80;;;;;;5074428;28;20021;-76
2022/07/19 08:55:06;;;;;;;3.60;0.10;;;31.40;55.10;;;;;;5073842;28;20040;-76
2022/07/19 09:00:16;;;;;;;0.85;0.15;;;31.60;55.00;;;;;;5074739;28;20062;-76
2022/07/19 09:02:59;;;;;;;2.13;0.20;;;31.60;54.70;;;;;;5074954;28;20465;-76
2022/07/19 09:05:25;;;;;;;1.35;0.63;;;31.70;54.10;;;;;;5074112;28;20544;-76
2022/07/19 09:08:06;;;;;;;1.38;0.10;;;31.60;54.70;;;;;;5074148;28;20095;-76
2022/07/19 09:10:34;;;;;;;2.67;0.10;;;31.70;55.80;;;;;;5072705;28;20028;-74
2022/07/19 09:13:07;;;;;;;1.45;0.50;;;31.80;55.60;;;;;;5074346;28;20376;-74
2022/07/19 09:15:51;;;;;;;2.83;0.10;;;31.80;55.80;;;;;;5074009;28;20493;-74
2022/07/19 09:18:22;;;;;;;1.23;0.20;;;31.90;56.00;;;;;;5072600;28;20140;-73
2022/07/19 09:20:54;;;;;;;4.70;0.40;;;31.80;56.20;;;;;;5074018;28;20032;-73
2022/07/19 09:23:20;;;;;;;1.13;0.30;;;31.80;56.70;;;;;;5072639;28;20017;-73
2022/07/19 09:25:52;;;;;;;1.92;0.17;;;31.90;56.40;;;;;;5073789;28;20024;-73
2022/07/19 09:28:19;;;;;;;5.97;0.98;;;32.00;56.30;;;;;;5072555;28;20519;-73
2022/07/19 09:30:48;;;;;;;6.10;0.65;;;32.00;57.00;;;;;;5072322;28;20016;-73
2022/07/19 09:33:20;;;;;;;4.03;0.43;;;32.00;56.10;;;;;;5073912;28;20029;-73
2022/07/19 09:35:48;;;;;;;3.22;0.20;;;32.10;56.00;;;;;;5072417;28;20119;-74
2022/07/19 09:38:27;;;;;;;;;;;32.20;55.60;;;;;;5074727;28;20078;-74
2022/07/19 09:41:14;;;;;;;4.75;0.73;;;32.30;53.80;;;;;;5072320;28;19904;-74
2022/07/19 09:43:55;;;;;;;1.50;0.15;;;32.50;53.40;;;;;;5072458;28;20493;-74
2022/07/19 09:46:34;;;;;;;4.93;0.10;;;32.60;53.40;;;;;;5072210;28;20385;-74
2022/07/19 09:49:05;;;;;;;1.40;0.10;;;32.80;52.60;;;;;;5073754;28;20013;-74
2022/07/19 09:51:37;;;;;;;4.03;0.65;;;32.90;51.70;;;;;;5072088;28;20028;-74
2022/07/19 09:54:05;;;;;;;3.15;0.32;;;33.00;51.90;;;;;;5074210;28;20029;-73
2022/07/19 09:56:31;;;;;;;0.32;0.20;;;33.10;51.20;;;;;;5073466;28;20024;-73
2022/07/19 09:58:58;;;;;;;4.28;0.35;;;33.20;50.30;;;;;;5073233;28;20099;-73
2022/07/19 10:01:24;;;;;;;1.92;0.20;;;33.30;48.40;;;;;;5073400;28;20070;-73
2022/07/19 10:03:56;;;;;;;2.95;0.10;;;33.40;47.90;;;;;;5073398;28;20025;-73
2022/07/19 10:06:23;;;;;;;3.50;0.17;;;33.50;48.20;;;;;;5073072;28;20025;-73
2022/07/19 10:08:50;;;;;;;3.53;0.00;;;33.50;48.50;;;;;;5072033;28;20024;-73
2022/07/19 10:11:16;;;;;;;1.10;0.00;;;33.80;48.90;;;;;;5073576;28;20027;-73
2022/07/19 10:13:41;;;;;;;2.33;0.05;;;33.90;47.50;;;;;;5073513;28;20462;-73
2022/07/19 10:16:12;;;;;;;8.38;0.85;;;34.00;47.20;;;;;;5073185;28;20362;-73
2022/07/19 10:19:01;;;;;;;2.75;0.10;;;34.10;46.80;;;;;;5071933;28;20118;-73
2022/07/19 10:21:27;;;;;;;3.92;0.65;;;34.20;46.90;;;;;;5073570;28;20035;-73
2022/07/19 10:23:53;;;;;;;2.38;0.10;;;34.30;45.10;;;;;;5073469;28;20580;-74
2022/07/19 10:26:40;;;;;;;3.13;0.10;;;34.40;45.80;;;;;;5073117;28;20024;-75
2022/07/19 10:29:15;;;;;;;0.82;0.08;;;34.60;44.90;;;;;;5072913;28;20029;-74
2022/07/19 10:31:43;;;;;;;0.15;0.00;;;34.70;44.00;;;;;;5073007;28;20032;-73
2022/07/19 10:34:22;;;;;;;1.02;0.20;;;34.80;43.60;;;;;;5073316;28;20489;-73
2022/07/19 10:36:49;;;;;;;0.30;0.05;;;34.90;42.80;;;;;;5072972;28;20436;-73
2022/07/19 10:39:17;;;;;;;0.10;0.05;;;35.00;42.40;;;;;;5072770;28;20029;-73
2022/07/19 10:42:08;;;;;;;0.40;0.00;;;35.10;41.50;;;;;;5071899;28;20028;-73
2022/07/19 10:44:59;;;;;;;0.50;0.13;;;35.30;40.70;;;;;;5071767;28;20044;-73
2022/07/19 10:47:37;;;;;;;2.10;0.55;;;35.40;40.70;;;;;;5072180;28;20029;-73
2022/07/19 10:50:09;;;;;;;;;;;35.50;40.80;;;;;;5072002;28;20115;-73
2022/07/19 10:52:37;;;;;;;1.13;0.10;;;35.70;41.00;;;;;;5071678;28;19991;-73
2022/07/19 10:55:18;;;;;;;;;;;35.90;41.20;;;;;;5073286;28;20025;-73
2022/07/19 10:57:45;;;;;;;2.50;0.32;;;36.10;40.90;;;;;;5072867;28;19944;-73
2022/07/19 11:00:20;;;;;;;0.15;0.00;;;36.30;40.10;;;;;;5071408;28;20028;-73
2022/07/19 11:02:48;;;;;;;0.55;0.10;;;36.40;40.40;;;;;;5073267;28;20035;-73
2022/07/19 11:05:46;;;;;;;2.80;0.05;;;36.60;39.90;;;;;;5072944;28;20044;-73
2022/07/19 11:08:12;;;;;;;0.68;0.10;;;36.60;39.70;;;;;;5072586;28;20043;-73
2022/07/19 11:10:37;;;;;;;5.53;0.45;;;36.70;40.60;;;;;;5072499;28;20024;-74
2022/07/19 11:13:03;;;;;;;1.65;0.05;;;36.80;41.50;;;;;;5072635;28;20020;-74
2022/07/19 11:15:28;;;;;;;5.93;0.95;;;36.90;41.00;;;;;;5072640;28;20017;-74
2022/07/19 11:18:01;;;;;;;2.03;0.10;;;37.00;40.40;;;;;;5071426;28;20078;-74
2022/07/19 11:20:32;;;;;;;2.28;0.10;;;37.10;40.50;;;;;;5076079;28;20024;-73
2022/07/19 11:22:59;;;;;;;1.38;0.10;;;37.20;39.60;;;;;;5076453;28;20020;-73
2022/07/19 11:25:27;;;;;;;1.83;0.10;;;37.40;39.90;;;;;;5076414;28;20032;-73
2022/07/19 11:27:53;;;;;;;4.07;0.17;;;37.60;40.00;;;;;;5076310;28;20020;-73
2022/07/19 11:30:22;;;;;;;4.13;0.22;;;37.90;39.90;;;;;;5076165;28;20024;-73
2022/07/19 11:32:55;;;;;;;13.30;1.35;;;38.00;38.20;;;;;;5075933;28;20025;-73
2022/07/19 11:35:21;;;;;;;1.88;0.08;;;38.20;39.50;;;;;;5076207;28;20028;-73
2022/07/19 11:37:47;;;;;;;4.55;0.00;;;38.40;39.00;;;;;;5075962;28;20024;-73
2022/07/19 11:40:13;;;;;;;2.05;0.00;;;38.40;38.00;;;;;;5074480;28;20036;-73
2022/07/19 11:42:45;;;;;;;0.80;0.10;;;38.30;38.20;;;;;;5076363;28;20373;-73
2022/07/19 11:45:11;;;;;;;2.17;0.00;;;38.30;38.00;;;;;;5076037;28;20035;-73
2022/07/19 11:47:40;;;;;;;4.97;0.40;;;38.40;39.20;;;;;;5075970;28;20021;-73
2022/07/19 11:50:07;;;;;;;0.85;0.10;;;38.30;38.70;;;;;;5075641;28;20055;-73
2022/07/19 11:52:54;;;;;;;2.13;0.10;;;38.60;39.70;;;;;;5075584;28;20497;-73
2022/07/19 11:55:26;;;;;;;1.65;0.40;;;38.80;39.00;;;;;;5075591;28;20021;-73
2022/07/19 11:57:52;;;;;;;0.52;0.00;;;38.90;38.30;;;;;;5075598;28;20025;-73
2022/07/19 12:00:19;;;;;;;0.40;0.00;;;39.00;37.60;;;;;;5075392;28;20025;-73
2022/07/19 12:02:58;;;;;;;4.47;0.25;;;38.90;38.20;;;;;;5075573;28;20024;-73
2022/07/19 12:05:27;;;;;;;1.85;0.10;;;38.90;38.90;;;;;;5075365;28;20108;-73
2022/07/19 12:07:56;;;;;;;0.73;0.10;;;39.20;39.60;;;;;;5075386;28;20024;-73
2022/07/19 12:10:34;;;;;;;3.97;0.20;;;39.40;38.20;;;;;;5073945;28;20478;-73
2022/07/19 12:13:01;;;;;;;2.60;0.00;;;39.40;37.80;;;;;;5075443;28;20056;-73
2022/07/19 12:15:39;;;;;;;0.32;0.20;;;39.40;38.10;;;;;;5075208;28;20108;-73
2022/07/19 12:18:05;;;;;;;2.30;0.52;;;39.50;38.40;;;;;;5075091;28;20024;-74
2022/07/19 12:20:30;;;;;;;2.63;0.00;;;39.70;38.00;;;;;;5073881;28;20070;-74
2022/07/19 12:23:14;;;;;;;0.43;0.00;;;39.80;38.10;;;;;;5073815;28;20537;-74
2022/07/19 12:25:40;;;;;;;1.08;0.15;;;39.90;37.40;;;;;;5075012;28;20469;-74
2022/07/19 12:28:06;;;;;;;5.20;0.17;;;40.00;37.20;;;;;;5075143;28;20130;-74
2022/07/19 12:30:31;;;;;;;1.70;0.22;;;40.00;37.30;;;;;;5074749;28;20055;-74
2022/07/19 12:33:11;;;;;;;4.03;0.22;;;40.20;37.70;;;;;;5074808;28;20028;-74
2022/07/19 12:35:44;;;;;;;2.00;0.05;;;40.30;37.80;;;;;;5073908;28;20535;-73
2022/07/19 12:38:11;;;;;;;1.73;0.17;;;40.40;37.20;;;;;;5074021;28;20546;-73
2022/07/19 12:40:39;;;;;;;1.97;0.00;;;40.60;37.40;;;;;;5074028;28;20029;-73
2022/07/19 12:43:05;;;;;;;1.58;0.10;;;40.60;37.10;;;;;;5073722;28;20047;-73
2022/07/19 12:45:34;;;;;;;0.93;0.10;;;40.40;37.20;;;;;;5075133;28;20025;-73
2022/07/19 12:48:01;;;;;;;1.33;0.15;;;40.40;37.20;;;;;;5075010;28;20027;-73
2022/07/19 12:50:33;;;;;;;1.20;0.10;;;40.60;38.20;;;;;;5074426;28;20024;-73
2022/07/19 12:53:01;;;;;;;2.58;0.10;;;40.80;37.10;;;;;;5074492;28;20031;-73